createdAt,value
2023-05-02T00:00:38.125Z,102120.88
2023-05-02T00:03:26.522Z,102118.84
2023-05-02T00:06:18.637Z,102129.13
2023-05-02T00:09:06.935Z,102126.75
2023-05-02T00:12:03.061Z,102132.31
2023-05-02T00:14:51.871Z,102142.88
2023-05-02T00:17:43.694Z,102133.41
2023-05-02T00:20:31.374Z,102138.69
2023-05-02T00:23:18.591Z,102146.44
2023-05-02T00:26:09.530Z,102143.94
2023-05-02T00:28:58.278Z,102148.91
2023-05-02T00:31:46.964Z,102152.84
2023-05-02T00:34:38.193Z,102149.19
2023-05-02T00:37:29.076Z,102148.66
2023-05-02T00:40:16.750Z,102160.66
2023-05-02T00:43:04.004Z,102159.63
2023-05-02T00:45:52.631Z,102174.69
2023-05-02T00:48:41.827Z,102166.41
2023-05-02T00:51:29.957Z,102184.19
2023-05-02T00:54:17.539Z,102186.53
2023-05-02T00:57:04.865Z,102190.66
2023-05-02T00:59:52.650Z,102195.75
2023-05-02T01:02:51.446Z,102191.88
2023-05-02T01:05:48.615Z,102195.47
2023-05-02T01:08:47.453Z,102204.00
2023-05-02T01:11:46.543Z,102196.25
2023-05-02T01:14:51.230Z,102193.28
2023-05-02T01:17:39.739Z,102189.03
2023-05-02T01:20:31.583Z,102186.00
2023-05-02T01:23:31.048Z,102179.44
2023-05-02T01:26:33.008Z,102187.19
2023-05-02T01:29:30.200Z,102192.31
2023-05-02T01:32:26.740Z,102202.25
2023-05-02T01:35:17.510Z,102219.28
2023-05-02T01:38:25.649Z,102201.63
2023-05-02T01:41:13.804Z,102217.13
2023-05-02T01:44:04.004Z,102210.31
2023-05-02T01:47:03.839Z,102220.50
2023-05-02T01:49:55.072Z,102218.06
2023-05-02T01:52:42.953Z,102223.47
2023-05-02T01:55:43.638Z,102230.56
2023-05-02T01:58:36.832Z,102232.34
2023-05-02T02:01:31.979Z,102230.72
2023-05-02T02:04:22.392Z,102241.72
2023-05-02T02:07:13.035Z,102243.56
2023-05-02T02:10:01.039Z,102238.16
2023-05-02T02:12:53.234Z,102251.34
2023-05-02T02:15:42.373Z,102253.50
2023-05-02T02:18:36.876Z,102256.38
2023-05-02T02:21:29.630Z,102267.81
2023-05-02T02:24:22.862Z,102265.28
2023-05-02T02:27:11.508Z,102264.47
2023-05-02T02:30:01.827Z,102270.22
2023-05-02T02:32:49.754Z,102271.44
2023-05-02T02:35:44.622Z,102272.34
2023-05-02T02:38:38.988Z,102278.81
2023-05-02T02:41:31.982Z,102277.16
2023-05-02T02:44:28.936Z,102270.78
2023-05-02T02:47:26.817Z,102293.00
2023-05-02T02:50:19.558Z,102286.03
2023-05-02T02:53:17.558Z,102298.16
2023-05-02T02:56:16.201Z,102300.44
2023-05-02T02:59:06.639Z,102304.28
2023-05-02T03:02:03.168Z,102302.97
2023-05-02T03:04:53.965Z,102301.53
2023-05-02T03:07:41.883Z,102310.66
2023-05-02T03:10:29.137Z,102316.53
2023-05-02T03:13:51.541Z,102314.72
2023-05-02T03:16:39.812Z,102318.25
2023-05-02T03:20:05.622Z,102328.34
2023-05-02T03:22:54.127Z,102331.22
2023-05-02T03:25:44.423Z,102331.94
2023-05-02T03:28:35.732Z,102342.34
2023-05-02T03:31:44.777Z,102349.91
2023-05-02T03:34:32.902Z,102353.66
2023-05-02T03:37:20.540Z,102354.34
2023-05-02T03:40:10.073Z,102360.97
2023-05-02T03:43:04.148Z,102355.56
2023-05-02T03:45:59.838Z,102355.81
2023-05-02T03:49:25.505Z,102362.91
2023-05-02T03:52:14.020Z,102365.66
2023-05-02T03:55:02.209Z,102374.56
2023-05-02T03:57:54.106Z,102370.00
2023-05-02T04:00:47.199Z,102374.44
2023-05-02T04:03:37.904Z,102382.09
2023-05-02T04:06:28.753Z,102387.00
2023-05-02T04:09:16.940Z,102392.31
2023-05-02T04:12:04.735Z,102399.72
2023-05-02T04:14:54.162Z,102396.13
2023-05-02T04:17:41.650Z,102391.81
2023-05-02T04:20:54.328Z,102405.34
2023-05-02T04:23:43.563Z,102415.69
2023-05-02T04:26:31.805Z,102412.34
2023-05-02T04:29:33.597Z,102406.31
2023-05-02T04:32:20.870Z,102414.22
2023-05-02T04:35:11.342Z,102420.84
2023-05-02T04:38:00.173Z,102427.44
2023-05-02T04:41:23.505Z,102431.78
2023-05-02T04:44:15.286Z,102433.44
2023-05-02T04:50:31.875Z,102440.97
2023-05-02T04:53:23.844Z,102449.38
2023-05-02T04:56:16.232Z,102450.34
2023-05-02T04:59:31.527Z,102462.81
2023-05-02T05:02:37.288Z,102468.34
2023-05-02T05:05:24.632Z,102477.94
2023-05-02T05:08:12.189Z,102466.41
2023-05-02T05:11:01.933Z,102478.28
2023-05-02T05:13:50.760Z,102487.41
2023-05-02T05:16:50.353Z,102482.34
2023-05-02T05:19:38.860Z,102480.31
2023-05-02T05:22:26.189Z,102480.59
2023-05-02T05:25:14.144Z,102484.19
2023-05-02T05:28:04.691Z,102480.47
2023-05-02T05:30:52.793Z,102495.63
2023-05-02T05:33:41.046Z,102499.41
2023-05-02T05:36:33.086Z,102497.03
2023-05-02T05:39:22.229Z,102497.38
2023-05-02T05:42:15.706Z,102510.84
2023-05-02T05:45:07.653Z,102517.31
2023-05-02T05:47:56.162Z,102501.28
2023-05-02T05:50:50.088Z,102523.78
2023-05-02T05:53:37.944Z,102541.53
2023-05-02T05:56:26.325Z,102537.34
2023-05-02T05:59:13.917Z,102551.72
2023-05-02T06:02:20.522Z,102559.63
2023-05-02T06:05:09.345Z,102551.03
2023-05-02T06:07:58.017Z,102564.22
2023-05-02T06:10:45.616Z,102566.19
2023-05-02T06:13:33.262Z,102569.16
2023-05-02T06:16:57.145Z,102578.59
2023-05-02T06:20:01.607Z,102583.94
2023-05-02T06:22:50.156Z,102592.19
2023-05-02T06:25:40.736Z,102591.03
2023-05-02T06:28:29.818Z,102602.63
2023-05-02T06:31:17.302Z,102597.56
2023-05-02T06:34:04.894Z,102588.19
2023-05-02T06:36:59.425Z,102595.31
2023-05-02T06:39:47.900Z,102603.25
2023-05-02T06:42:35.321Z,102609.03
2023-05-02T06:45:22.970Z,102611.94
2023-05-02T06:48:11.536Z,102617.19
2023-05-02T06:50:59.140Z,102627.06
2023-05-02T06:53:50.152Z,102633.75
2023-05-02T06:56:53.056Z,102632.69
2023-05-02T06:59:41.854Z,102640.97
2023-05-02T07:02:29.569Z,102634.94
2023-05-02T07:05:17.251Z,102645.66
2023-05-02T07:08:05.004Z,102636.56
2023-05-02T07:10:54.063Z,102642.59
2023-05-02T07:13:47.040Z,102656.66
2023-05-02T07:16:35.514Z,102652.66
2023-05-02T07:19:33.429Z,102659.13
2023-05-02T07:22:21.362Z,102660.22
2023-05-02T07:25:16.703Z,102660.09
2023-05-02T07:28:11.498Z,102669.38
2023-05-02T07:30:59.227Z,102673.38
2023-05-02T07:33:48.014Z,102666.66
2023-05-02T07:36:36.857Z,102671.66
2023-05-02T07:39:24.769Z,102661.50
2023-05-02T07:42:16.645Z,102675.63
2023-05-02T07:45:08.578Z,102673.13
2023-05-02T07:47:56.037Z,102672.13
2023-05-02T07:50:44.007Z,102679.91
2023-05-02T07:53:58.722Z,102673.75
2023-05-02T07:57:33.077Z,102678.75
2023-05-02T08:00:22.206Z,102690.69
2023-05-02T08:03:09.705Z,102686.97
2023-05-02T08:05:57.688Z,102687.81
2023-05-02T08:08:55.420Z,102690.91
2023-05-02T08:11:50.098Z,102690.91
2023-05-02T08:14:57.701Z,102706.06
2023-05-02T08:17:51.206Z,102705.50
2023-05-02T08:20:39.843Z,102703.81
2023-05-02T08:23:27.126Z,102706.91
2023-05-02T08:26:16.042Z,102712.81
2023-05-02T08:29:04.608Z,102710.66
2023-05-02T08:31:52.439Z,102716.16
2023-05-02T08:34:41.226Z,102719.78
2023-05-02T08:37:29.067Z,102722.19
2023-05-02T08:40:24.667Z,102731.50
2023-05-02T08:43:21.434Z,102731.81
2023-05-02T08:46:10.988Z,102733.19
2023-05-02T08:49:23.469Z,102733.94
2023-05-02T08:52:20.234Z,102732.50
2023-05-02T08:55:13.797Z,102744.81
2023-05-02T08:58:05.464Z,102749.47
2023-05-02T09:00:58.490Z,102755.13
2023-05-02T09:03:47.107Z,102747.53
2023-05-02T09:06:36.822Z,102746.59
2023-05-02T09:09:27.282Z,102755.53
2023-05-02T09:12:17.048Z,102745.69
2023-05-02T09:15:20.683Z,102752.47
2023-05-02T09:18:21.156Z,102741.06
2023-05-02T09:21:21.140Z,102746.31
2023-05-02T09:24:27.542Z,102760.56
2023-05-02T09:27:17.125Z,102756.34
2023-05-02T09:30:22.147Z,102769.44
2023-05-02T09:33:17.459Z,102766.94
2023-05-02T09:36:10.417Z,102767.38
2023-05-02T09:39:12.119Z,102774.16
2023-05-02T09:42:06.855Z,102786.69
2023-05-02T09:44:59.273Z,102777.31
2023-05-02T09:47:50.175Z,102782.53
2023-05-02T09:50:39.112Z,102786.53
2023-05-02T09:53:48.360Z,102800.50
2023-05-02T09:57:07.718Z,102790.69
2023-05-02T09:59:56.897Z,102795.81
2023-05-02T10:03:01.084Z,102793.84
2023-05-02T10:05:49.898Z,102790.88
2023-05-02T10:08:39.661Z,102790.09
2023-05-02T10:11:45.236Z,102802.03
2023-05-02T10:14:50.152Z,102789.91
2023-05-02T10:18:03.310Z,102801.50
2023-05-02T10:20:58.449Z,102799.50
2023-05-02T10:23:50.306Z,102801.66
2023-05-02T10:26:39.815Z,102798.13
2023-05-02T10:29:29.766Z,102810.22
2023-05-02T10:32:20.280Z,102806.78
2023-05-02T10:35:11.169Z,102810.66
2023-05-02T10:38:08.609Z,102797.84
2023-05-02T10:41:09.111Z,102807.16
2023-05-02T10:43:56.918Z,102811.38
2023-05-02T10:46:45.369Z,102813.91
2023-05-02T10:49:34.764Z,102827.22
2023-05-02T10:52:31.708Z,102812.06
2023-05-02T10:55:28.047Z,102814.00
2023-05-02T10:58:22.763Z,102816.25
2023-05-02T11:01:37.833Z,102823.94
2023-05-02T11:04:25.751Z,102821.94
2023-05-02T11:07:26.098Z,102808.47
2023-05-02T11:10:31.615Z,102818.66
2023-05-02T11:13:49.733Z,102828.81
2023-05-02T11:17:11.342Z,102824.81
2023-05-02T11:20:30.483Z,102819.56
2023-05-02T11:23:27.826Z,102824.25
2023-05-02T11:26:28.950Z,102822.97
2023-05-02T11:29:52.377Z,102822.00
2023-05-02T11:33:26.982Z,102822.75
2023-05-02T11:36:33.080Z,102825.72
2023-05-02T11:39:23.884Z,102828.81
2023-05-02T11:42:29.109Z,102822.44
2023-05-02T11:45:22.241Z,102821.03
2023-05-02T11:48:11.715Z,102832.84
2023-05-02T11:51:05.706Z,102845.00
2023-05-02T11:53:53.873Z,102842.31
2023-05-02T11:56:41.891Z,102846.06
2023-05-02T11:59:30.986Z,102853.28
2023-05-02T12:02:18.708Z,102854.19
2023-05-02T12:05:07.878Z,102858.78
2023-05-02T12:07:57.840Z,102861.41
2023-05-02T12:10:46.431Z,102864.81
2023-05-02T12:13:36.584Z,102867.50
2023-05-02T12:16:25.691Z,102867.53
2023-05-02T12:19:17.063Z,102862.72
2023-05-02T12:22:05.939Z,102860.53
2023-05-02T12:24:53.959Z,102854.50
2023-05-02T12:28:06.708Z,102860.91
2023-05-02T12:30:54.721Z,102859.50
2023-05-02T12:33:57.323Z,102860.63
2023-05-02T12:36:46.309Z,102865.31
2023-05-02T12:39:39.692Z,102867.16
2023-05-02T12:42:28.511Z,102868.31
2023-05-02T12:45:28.365Z,102873.41
2023-05-02T12:48:25.692Z,102875.34
2023-05-02T12:51:53.191Z,102885.88
2023-05-02T12:54:41.015Z,102877.38
2023-05-02T12:57:33.873Z,102883.66
2023-05-02T13:00:21.450Z,102883.81
2023-05-02T13:03:13.370Z,102888.56
2023-05-02T13:06:01.126Z,102882.88
2023-05-02T13:08:57.315Z,102878.25
2023-05-02T13:11:51.529Z,102888.53
2023-05-02T13:14:39.469Z,102900.09
2023-05-02T13:17:27.722Z,102896.59
2023-05-02T13:20:19.304Z,102889.25
2023-05-02T13:23:07.399Z,102894.25
2023-05-02T13:26:04.061Z,102889.53
2023-05-02T13:29:02.186Z,102888.56
2023-05-02T13:31:49.731Z,102885.31
2023-05-02T13:34:37.938Z,102892.69
2023-05-02T13:37:26.995Z,102895.53
2023-05-02T13:40:24.627Z,102897.22
2023-05-02T13:43:13.474Z,102904.78
2023-05-02T13:46:09.729Z,102900.47
2023-05-02T13:48:58.057Z,102921.34
2023-05-02T13:51:45.962Z,102921.13
2023-05-02T13:54:40.099Z,102919.16
2023-05-02T13:57:32.074Z,102931.34
2023-05-02T14:00:23.689Z,102917.31
2023-05-02T14:03:39.842Z,102916.78
2023-05-02T14:06:30.248Z,102927.84
2023-05-02T14:09:17.637Z,102926.84
2023-05-02T14:12:06.026Z,102919.72
2023-05-02T14:14:56.705Z,102909.72
2023-05-02T14:17:49.739Z,102916.34
2023-05-02T14:20:46.031Z,102922.72
2023-05-02T14:23:34.288Z,102935.63
2023-05-02T14:26:21.929Z,102927.47
2023-05-02T14:29:11.810Z,102924.31
2023-05-02T14:32:01.147Z,102922.50
2023-05-02T14:34:50.763Z,102915.84
2023-05-02T14:37:38.477Z,102926.28
2023-05-02T14:40:26.346Z,102925.88
2023-05-02T14:43:14.125Z,102929.75
2023-05-02T14:46:02.763Z,102923.78
2023-05-02T14:48:50.139Z,102905.72
2023-05-02T14:51:44.363Z,102918.66
2023-05-02T14:54:31.745Z,102909.00
2023-05-02T14:57:19.599Z,102917.75
2023-05-02T15:00:16.849Z,102910.28
2023-05-02T15:03:07.177Z,102897.78
2023-05-02T15:06:02.353Z,102899.09
2023-05-02T15:08:52.086Z,102897.91
2023-05-02T15:11:39.666Z,102903.47
2023-05-02T15:14:27.024Z,102908.34
2023-05-02T15:17:17.419Z,102909.13
2023-05-02T15:20:05.936Z,102907.06
2023-05-02T15:23:03.478Z,102908.03
2023-05-02T15:25:52.812Z,102913.81
2023-05-02T15:28:43.191Z,102913.34
2023-05-02T15:31:31.443Z,102915.81
2023-05-02T15:34:19.190Z,102918.41
2023-05-02T15:37:12.259Z,102925.13
2023-05-02T15:40:12.277Z,102921.97
2023-05-02T15:43:01.754Z,102920.72
2023-05-02T15:45:55.416Z,102914.03
2023-05-02T15:48:43.259Z,102919.47
2023-05-02T15:51:34.244Z,102921.97
2023-05-02T15:54:31.126Z,102924.56
2023-05-02T15:57:19.735Z,102924.41
2023-05-02T16:00:34.856Z,102923.25
2023-05-02T16:03:23.087Z,102927.06
2023-05-02T16:06:16.260Z,102931.22
2023-05-02T16:09:12.361Z,102933.78
2023-05-02T16:12:01.765Z,102945.94
2023-05-02T16:14:56.839Z,102941.78
2023-05-02T16:17:49.222Z,102933.53
2023-05-02T16:20:37.344Z,102932.84
2023-05-02T16:23:34.723Z,102937.75
2023-05-02T16:26:30.101Z,102943.25
2023-05-02T16:29:17.873Z,102935.22
2023-05-02T16:32:06.030Z,102944.63
2023-05-02T16:35:00.959Z,102924.78
2023-05-02T16:37:49.114Z,102921.56
2023-05-02T16:40:37.446Z,102935.72
2023-05-02T16:43:25.315Z,102925.63
2023-05-02T16:46:13.367Z,102927.72
2023-05-02T16:49:01.134Z,102940.88
2023-05-02T16:52:18.924Z,102947.66
2023-05-02T16:55:09.591Z,102947.41
2023-05-02T16:57:57.551Z,102945.22
2023-05-02T17:00:45.677Z,102941.03
2023-05-02T17:03:34.127Z,102945.41
2023-05-02T17:06:22.949Z,102942.78
2023-05-02T17:09:12.570Z,102944.47
2023-05-02T17:12:02.973Z,102950.38
2023-05-02T17:14:53.332Z,102946.53
2023-05-02T17:17:52.680Z,102959.03
2023-05-02T17:20:41.400Z,102963.63
2023-05-02T17:23:30.755Z,102961.47
2023-05-02T17:26:29.304Z,102966.13
2023-05-02T17:29:17.170Z,102961.59
2023-05-02T17:32:05.245Z,102967.38
2023-05-02T17:35:03.074Z,102964.84
2023-05-02T17:37:53.803Z,102962.25
2023-05-02T17:40:42.656Z,102972.94
2023-05-02T17:43:31.776Z,102972.25
2023-05-02T17:46:19.173Z,102972.75
2023-05-02T17:49:15.351Z,102969.72
2023-05-02T17:52:04.099Z,102967.47
2023-05-02T17:54:56.371Z,102970.19
2023-05-02T17:57:54.233Z,102977.34
2023-05-02T18:00:43.910Z,102980.75
2023-05-02T18:03:36.782Z,102970.66
2023-05-02T18:07:03.520Z,102980.63
2023-05-02T18:09:57.159Z,102975.13
2023-05-02T18:12:44.763Z,102974.69
2023-05-02T18:15:36.542Z,102976.28
2023-05-02T18:18:42.418Z,102962.03
2023-05-02T18:21:34.836Z,102975.78
2023-05-02T18:24:26.077Z,102977.88
2023-05-02T18:27:17.162Z,102970.09
2023-05-02T18:30:26.275Z,102979.22
2023-05-02T18:33:16.502Z,102978.72
2023-05-02T18:36:06.491Z,102978.75
2023-05-02T18:38:59.930Z,102974.84
2023-05-02T18:41:47.451Z,102972.63
2023-05-02T18:44:34.921Z,102987.31
2023-05-02T18:47:31.196Z,102994.53
2023-05-02T18:50:19.458Z,102994.53
2023-05-02T18:53:11.498Z,102988.00
2023-05-02T18:56:12.637Z,102988.13
2023-05-02T18:59:00.506Z,102991.81
2023-05-02T19:01:48.957Z,102995.19
2023-05-02T19:04:37.187Z,102996.34
2023-05-02T19:07:25.061Z,102999.50
2023-05-02T19:10:15.053Z,102997.94
2023-05-02T19:13:03.495Z,102998.13
2023-05-02T19:15:50.986Z,103011.22
2023-05-02T19:18:39.623Z,103018.63
2023-05-02T19:21:28.204Z,103019.47
2023-05-02T19:24:34.062Z,103013.34
2023-05-02T19:27:23.218Z,103014.09
2023-05-02T19:30:16.003Z,103020.00
2023-05-02T19:33:03.573Z,103016.00
2023-05-02T19:35:52.703Z,103026.13
2023-05-02T19:38:41.719Z,103029.19
2023-05-02T19:41:29.363Z,103027.16
2023-05-02T19:44:23.027Z,103031.09
2023-05-02T19:47:10.880Z,103029.94
2023-05-02T19:50:04.462Z,103028.16
2023-05-02T19:52:52.143Z,103024.13
2023-05-02T19:55:40.319Z,103031.91
2023-05-02T19:58:28.045Z,103031.19
2023-05-02T20:01:17.174Z,103032.75
2023-05-02T20:04:04.930Z,103036.53
2023-05-02T20:06:52.630Z,103042.00
2023-05-02T20:09:40.305Z,103056.06
2023-05-02T20:12:52.113Z,103049.44
2023-05-02T20:15:41.253Z,103053.22
2023-05-02T20:18:32.122Z,103057.53
2023-05-02T20:21:19.661Z,103059.66
2023-05-02T20:24:08.675Z,103065.16
2023-05-02T20:26:56.264Z,103063.66
2023-05-02T20:29:44.194Z,103061.66
2023-05-02T20:32:36.561Z,103059.53
2023-05-02T20:35:32.472Z,103070.22
2023-05-02T20:38:20.607Z,103068.72
2023-05-02T20:41:11.669Z,103076.59
2023-05-02T20:44:01.318Z,103077.25
2023-05-02T20:46:51.854Z,103085.63
2023-05-02T20:49:39.566Z,103073.66
2023-05-02T20:52:28.293Z,103063.94
2023-05-02T20:55:15.514Z,103066.34
2023-05-02T20:58:03.549Z,103066.22
2023-05-02T21:00:52.922Z,103066.66
2023-05-02T21:03:41.356Z,103060.19
2023-05-02T21:06:32.663Z,103058.03
2023-05-02T21:09:21.942Z,103054.94
2023-05-02T21:12:09.575Z,103049.97
2023-05-02T21:15:00.581Z,103054.41
2023-05-02T21:17:48.758Z,103059.09
2023-05-02T21:20:38.169Z,103058.53
2023-05-02T21:23:28.263Z,103054.38
2023-05-02T21:26:17.033Z,103060.78
2023-05-02T21:29:05.196Z,103055.59
2023-05-02T21:31:54.772Z,103062.88
2023-05-02T21:34:46.555Z,103061.19
2023-05-02T21:37:34.735Z,103050.00
2023-05-02T21:40:23.928Z,103059.88
2023-05-02T21:43:13.290Z,103050.28
2023-05-02T21:46:01.668Z,103044.25
2023-05-02T21:48:50.229Z,103044.25
2023-05-02T21:51:41.162Z,103036.72
2023-05-02T21:54:29.164Z,103032.41
2023-05-02T21:57:21.056Z,103030.16
2023-05-02T22:00:13.407Z,103033.00
2023-05-02T22:03:08.528Z,103019.16
2023-05-02T22:05:57.619Z,103018.97
2023-05-02T22:08:47.296Z,103013.69
2023-05-02T22:11:37.858Z,103019.16
2023-05-02T22:14:33.707Z,103018.31
2023-05-02T22:17:33.533Z,103018.41
2023-05-02T22:20:21.511Z,103023.00
2023-05-02T22:23:13.158Z,103021.50
2023-05-02T22:26:00.562Z,103025.84
2023-05-02T22:28:47.935Z,103024.88
2023-05-02T22:31:36.477Z,103025.84
2023-05-02T22:34:25.798Z,103027.63
2023-05-02T22:37:13.816Z,103030.34
2023-05-02T22:40:04.011Z,103028.47
2023-05-02T22:42:51.801Z,103039.00
2023-05-02T22:45:39.403Z,103037.22
2023-05-02T22:48:27.369Z,103041.81
2023-05-02T22:51:16.808Z,103034.00
2023-05-02T22:54:06.237Z,103039.38
2023-05-02T22:56:54.201Z,103036.75
2023-05-02T22:59:41.785Z,103036.09
2023-05-02T23:02:29.296Z,103034.41
2023-05-02T23:05:16.567Z,103035.34
2023-05-02T23:08:05.538Z,103038.66
2023-05-02T23:10:53.381Z,103031.13
2023-05-02T23:13:40.916Z,103033.75
2023-05-02T23:16:28.549Z,103030.34
2023-05-02T23:19:19.677Z,103037.88
2023-05-02T23:22:06.956Z,103038.84
2023-05-02T23:24:56.113Z,103044.09
2023-05-02T23:27:43.837Z,103049.19
2023-05-02T23:30:34.698Z,103054.22
2023-05-02T23:33:22.591Z,103052.75
2023-05-02T23:36:11.254Z,103061.88
2023-05-02T23:39:02.073Z,103057.06
2023-05-02T23:41:51.854Z,103058.00
2023-05-02T23:44:39.538Z,103063.25
2023-05-02T23:47:27.366Z,103058.31
2023-05-02T23:50:19.059Z,103064.59
2023-05-02T23:53:09.272Z,103067.59
2023-05-02T23:55:57.669Z,103069.75
2023-05-02T23:58:46.829Z,103063.91
